Time;durP1;ratioP1;P1;durP2;ratioP2;P2;SDS_P1;SDS_P2;PMS_P1;PMS_P2;Temp;Humidity;BMP_temperature;BMP_pressure;BME280_temperature;BME280_humidity;BME280_pressure;Samples;Min_cycle;Max_cycle;Signal;HPM_P1;HPM_P2
2023/05/30 00:01:57;;;;;;;8.82;6.72;;;;;;;;;;6299882;28;20057;-86
2023/05/30 00:04:58;;;;;;;10.50;7.03;;;;;;;;;;6300001;28;20356;-86
2023/05/30 00:08:00;;;;;;;8.75;7.43;;;;;;;;;;6296596;28;20137;-86
2023/05/30 00:11:02;;;;;;;10.95;7.47;;;;;;;;;;6300638;28;20355;-86
2023/05/30 00:14:04;;;;;;;9.75;6.55;;;;;;;;;;6303633;28;20060;-86
2023/05/30 00:17:07;;;;;;;8.35;6.88;;;;;;;;;;6299721;28;20060;-86
2023/05/30 00:20:11;;;;;;;10.02;7.70;;;;;;;;;;6299333;28;20341;-86
2023/05/30 00:23:12;;;;;;;13.45;8.27;;;;;;;;;;6300047;28;20076;-86
2023/05/30 00:26:14;;;;;;;10.15;7.07;;;;;;;;;;6302278;28;20236;-86
2023/05/30 00:29:16;;;;;;;11.52;7.80;;;;;;;;;;6302597;28;20109;-85
2023/05/30 00:32:19;;;;;;;10.10;7.78;;;;;;;;;;6301439;28;20060;-86
2023/05/30 00:35:21;;;;;;;;;;;;;;;;;;6301704;28;20469;-85
2023/05/30 00:38:23;;;;;;;13.70;8.02;;;;;;;;;;6296385;28;19916;-86
2023/05/30 00:41:25;;;;;;;11.20;7.75;;;;;;;;;;6299783;28;20154;-87
2023/05/30 00:44:26;;;;;;;10.25;7.82;;;;;;;;;;6301739;28;20048;-86
2023/05/30 00:47:30;;;;;;;13.90;8.48;;;;;;;;;;6306352;28;20052;-88
2023/05/30 00:50:32;;;;;;;;;;;;;;;;;;6308106;28;20041;-86
2023/05/30 00:53:34;;;;;;;10.98;8.20;;;;;;;;;;6309726;28;19983;-88
2023/05/30 00:56:36;;;;;;;11.70;8.52;;;;;;;;;;6306405;28;20055;-86
2023/05/30 00:59:38;;;;;;;10.23;7.47;;;;;;;;;;6302153;28;20060;-88
2023/05/30 01:02:44;;;;;;;12.75;8.43;;;;;;;;;;6309885;28;20106;-85
2023/05/30 01:05:46;;;;;;;12.75;8.85;;;;;;;;;;6314672;28;20267;-88
2023/05/30 01:08:48;;;;;;;15.18;9.88;;;;;;;;;;6307782;28;20056;-86
2023/05/30 01:11:57;;;;;;;14.77;8.77;;;;;;;;;;6310248;28;20062;-88
2023/05/30 01:15:02;;;;;;;17.73;10.13;;;;;;;;;;6309297;28;20071;-86
2023/05/30 01:18:11;;;;;;;12.30;8.77;;;;;;;;;;6307075;28;20052;-88
2023/05/30 01:21:15;;;;;;;15.13;9.23;;;;;;;;;;6299311;28;20072;-87
2023/05/30 01:24:20;;;;;;;;;;;;;;;;;;6306234;28;20094;-86
2023/05/30 01:27:26;;;;;;;21.20;8.88;;;;;;;;;;6304094;28;20248;-86
2023/05/30 01:30:31;;;;;;;16.73;10.68;;;;;;;;;;6306019;28;20052;-87
2023/05/30 01:33:33;;;;;;;13.45;9.50;;;;;;;;;;6301722;28;20049;-86
2023/05/30 01:36:35;;;;;;;11.25;8.35;;;;;;;;;;6305431;28;20052;-86
2023/05/30 01:39:37;;;;;;;13.87;8.53;;;;;;;;;;6301772;28;20064;-85
2023/05/30 01:42:40;;;;;;;13.80;8.95;;;;;;;;;;6304913;28;20072;-86
2023/05/30 01:45:49;;;;;;;13.95;8.57;;;;;;;;;;6302534;28;20060;-85
2023/05/30 01:48:59;;;;;;;13.10;8.57;;;;;;;;;;6303629;28;20283;-85
2023/05/30 01:52:02;;;;;;;11.43;8.55;;;;;;;;;;6305617;28;20119;-86
2023/05/30 01:55:06;;;;;;;12.20;8.20;;;;;;;;;;6306247;28;20239;-87
2023/05/30 01:58:08;;;;;;;11.40;8.25;;;;;;;;;;6306317;28;20048;-86
2023/05/30 02:01:12;;;;;;;12.15;8.75;;;;;;;;;;6301036;28;20048;-87
2023/05/30 02:04:14;;;;;;;17.23;9.15;;;;;;;;;;6303819;28;20097;-86
2023/05/30 02:07:15;;;;;;;16.23;8.48;;;;;;;;;;6307846;28;20056;-86
2023/05/30 02:10:17;;;;;;;11.95;8.25;;;;;;;;;;6304691;28;20051;-88
2023/05/30 02:13:19;;;;;;;11.88;7.63;;;;;;;;;;6299510;28;20063;-88
2023/05/30 02:16:24;;;;;;;13.48;7.85;;;;;;;;;;6309371;28;20068;-86
2023/05/30 02:19:26;;;;;;;11.07;7.70;;;;;;;;;;6304919;28;20048;-86
2023/05/30 02:22:27;;;;;;;10.77;7.13;;;;;;;;;;6304667;28;20102;-86
2023/05/30 02:25:29;;;;;;;12.65;8.20;;;;;;;;;;6304532;28;20056;-86
2023/05/30 02:28:31;;;;;;;13.20;7.90;;;;;;;;;;6304129;28;20049;-87
2023/05/30 02:31:34;;;;;;;10.07;7.47;;;;;;;;;;6304373;28;20048;-87
2023/05/30 02:34:36;;;;;;;10.88;7.50;;;;;;;;;;6302046;28;20065;-87
2023/05/30 02:37:39;;;;;;;9.55;7.93;;;;;;;;;;6305920;28;20052;-86
2023/05/30 02:40:41;;;;;;;10.85;7.85;;;;;;;;;;6303163;28;20056;-88
2023/05/30 02:43:43;;;;;;;10.57;7.78;;;;;;;;;;6301183;28;20052;-88
2023/05/30 02:46:46;;;;;;;12.35;7.65;;;;;;;;;;6308011;28;20044;-86
2023/05/30 02:49:48;;;;;;;14.13;7.85;;;;;;;;;;6305105;28;20076;-86
2023/05/30 02:52:49;;;;;;;10.20;7.88;;;;;;;;;;6302941;28;20067;-87
2023/05/30 02:55:51;;;;;;;12.10;8.07;;;;;;;;;;6303126;28;20111;-86
2023/05/30 02:58:54;;;;;;;16.50;8.13;;;;;;;;;;6301449;28;20079;-86
2023/05/30 03:01:57;;;;;;;17.10;9.65;;;;;;;;;;6305838;28;20072;-90
2023/05/30 03:04:58;;;;;;;14.20;8.93;;;;;;;;;;6305441;28;20056;-84
2023/05/30 03:08:00;;;;;;;11.35;8.63;;;;;;;;;;6305469;28;20043;-86
2023/05/30 03:11:02;;;;;;;12.90;8.88;;;;;;;;;;6302477;28;20052;-90
2023/05/30 03:14:04;;;;;;;12.13;8.73;;;;;;;;;;6302038;28;20044;-86
2023/05/30 03:17:08;;;;;;;18.23;9.30;;;;;;;;;;6305701;28;20102;-87
2023/05/30 03:20:10;;;;;;;11.85;9.50;;;;;;;;;;6306512;28;20336;-86
2023/05/30 03:23:12;;;;;;;13.57;9.27;;;;;;;;;;6303243;28;20053;-86
2023/05/30 03:26:14;;;;;;;15.15;9.82;;;;;;;;;;6303128;28;20048;-85
2023/05/30 03:29:16;;;;;;;14.13;8.85;;;;;;;;;;6304401;28;20051;-88
2023/05/30 03:32:19;;;;;;;15.00;9.48;;;;;;;;;;6304187;28;20076;-86
2023/05/30 03:35:21;;;;;;;14.88;9.15;;;;;;;;;;6304404;28;20047;-86
2023/05/30 03:38:22;;;;;;;11.95;8.95;;;;;;;;;;6301918;28;20123;-86
2023/05/30 03:41:24;;;;;;;13.63;9.77;;;;;;;;;;6301229;28;20048;-86
2023/05/30 03:44:26;;;;;;;15.70;10.18;;;;;;;;;;6303509;28;20079;-86
2023/05/30 03:47:29;;;;;;;14.73;9.00;;;;;;;;;;6304914;28;20059;-85
2023/05/30 03:50:31;;;;;;;12.05;8.40;;;;;;;;;;6298419;28;20302;-86
2023/05/30 03:53:32;;;;;;;14.57;9.82;;;;;;;;;;6303731;28;20055;-86
2023/05/30 03:56:34;;;;;;;12.27;9.07;;;;;;;;;;6301195;28;20058;-86
2023/05/30 03:59:36;;;;;;;14.23;9.27;;;;;;;;;;6304054;28;20287;-86
2023/05/30 04:02:39;;;;;;;13.50;9.27;;;;;;;;;;6302146;28;20245;-86
2023/05/30 04:05:41;;;;;;;13.25;10.02;;;;;;;;;;6301340;28;20268;-85
2023/05/30 04:08:43;;;;;;;12.93;8.65;;;;;;;;;;6298119;28;20048;-85
2023/05/30 04:11:44;;;;;;;13.75;8.73;;;;;;;;;;6302547;28;20303;-86
2023/05/30 04:14:46;;;;;;;12.23;8.20;;;;;;;;;;6299754;28;20260;-86
2023/05/30 04:17:49;;;;;;;15.07;9.05;;;;;;;;;;6298571;28;20241;-87
2023/05/30 04:20:51;;;;;;;13.55;8.93;;;;;;;;;;6299616;28;20060;-87
2023/05/30 04:23:53;;;;;;;13.55;8.70;;;;;;;;;;6305356;28;20060;-86
2023/05/30 04:26:55;;;;;;;13.35;8.27;;;;;;;;;;6300318;28;20919;-86
2023/05/30 04:29:57;;;;;;;14.75;8.40;;;;;;;;;;6304447;28;20048;-86
2023/05/30 04:33:00;;;;;;;13.95;9.85;;;;;;;;;;6302858;28;20271;-86
2023/05/30 04:36:04;;;;;;;13.38;8.20;;;;;;;;;;6306032;28;20059;-86
2023/05/30 04:39:06;;;;;;;13.00;8.85;;;;;;;;;;6299715;28;20272;-88
2023/05/30 04:42:08;;;;;;;15.23;9.75;;;;;;;;;;6301198;28;20040;-87
2023/05/30 04:45:14;;;;;;;13.07;8.90;;;;;;;;;;6301782;28;20072;-89
2023/05/30 04:48:17;;;;;;;15.63;8.32;;;;;;;;;;6303119;28;20094;-88
2023/05/30 04:51:21;;;;;;;12.68;8.43;;;;;;;;;;6298588;28;20341;-88
2023/05/30 04:54:22;;;;;;;11.23;7.93;;;;;;;;;;6302922;28;20050;-88
2023/05/30 04:57:24;;;;;;;10.18;8.13;;;;;;;;;;6295544;28;20101;-88
2023/05/30 05:00:26;;;;;;;11.18;8.30;;;;;;;;;;6299201;28;20060;-86
2023/05/30 05:03:29;;;;;;;13.80;8.23;;;;;;;;;;6300213;28;20501;-89
2023/05/30 05:06:30;;;;;;;9.40;7.88;;;;;;;;;;6298412;28;20052;-89
2023/05/30 05:09:32;;;;;;;15.32;8.02;;;;;;;;;;6296424;28;20053;-88
2023/05/30 05:12:34;;;;;;;11.65;7.88;;;;;;;;;;6302033;28;20300;-94
2023/05/30 05:15:36;;;;;;;10.02;6.93;;;;;;;;;;6303897;28;20390;-87
2023/05/30 05:18:40;;;;;;;12.38;7.50;;;;;;;;;;6303056;28;20060;-88
2023/05/30 05:21:41;;;;;;;12.15;7.85;;;;;;;;;;6302992;28;20048;-87
2023/05/30 05:24:44;;;;;;;12.13;7.43;;;;;;;;;;6300700;28;20053;-88
2023/05/30 05:27:46;;;;;;;9.73;6.53;;;;;;;;;;6300423;28;20372;-90
2023/05/30 05:30:49;;;;;;;10.05;7.35;;;;;;;;;;6304230;28;20262;-85
2023/05/30 05:33:52;;;;;;;10.05;7.07;;;;;;;;;;6298815;28;20056;-88
2023/05/30 05:36:54;;;;;;;10.68;6.45;;;;;;;;;;6302889;28;20048;-87
2023/05/30 05:39:56;;;;;;;11.75;6.75;;;;;;;;;;6300755;28;20072;-88
2023/05/30 05:42:57;;;;;;;11.07;6.55;;;;;;;;;;6299176;28;20056;-87
2023/05/30 05:45:59;;;;;;;9.68;5.78;;;;;;;;;;6302182;28;20056;-87
2023/05/30 05:49:02;;;;;;;9.02;6.88;;;;;;;;;;6301449;28;20131;-84
2023/05/30 05:52:04;;;;;;;16.27;6.72;;;;;;;;;;6306238;28;20059;-84
2023/05/30 05:55:06;;;;;;;11.40;6.50;;;;;;;;;;6302353;28;20402;-84
2023/05/30 05:58:08;;;;;;;13.52;6.78;;;;;;;;;;6303319;28;20048;-79
2023/05/30 06:01:10;;;;;;;11.52;6.82;;;;;;;;;;6306871;28;20060;-87
2023/05/30 06:04:13;;;;;;;11.48;6.55;;;;;;;;;;6301478;28;20111;-87
2023/05/30 06:07:15;;;;;;;8.52;5.78;;;;;;;;;;6306375;28;20275;-84
2023/05/30 06:10:16;;;;;;;14.15;6.88;;;;;;;;;;6298524;28;20044;-86
2023/05/30 06:13:18;;;;;;;12.85;6.70;;;;;;;;;;6310355;28;20056;-84
2023/05/30 06:16:20;;;;;;;10.30;6.75;;;;;;;;;;6306432;28;20059;-83
2023/05/30 06:19:23;;;;;;;12.32;7.13;;;;;;;;;;6302678;28;20056;-85
2023/05/30 06:22:24;;;;;;;13.35;7.57;;;;;;;;;;6296136;28;21150;-86
2023/05/30 06:25:27;;;;;;;9.77;7.38;;;;;;;;;;6303706;28;20423;-85
2023/05/30 06:28:29;;;;;;;13.80;7.20;;;;;;;;;;6302842;28;20052;-87
2023/05/30 06:31:31;;;;;;;12.15;7.07;;;;;;;;;;6305705;28;20044;-86
2023/05/30 06:34:34;;;;;;;14.40;7.45;;;;;;;;;;6303963;28;20061;-85
2023/05/30 06:37:35;;;;;;;10.77;6.90;;;;;;;;;;6303172;28;20063;-86
2023/05/30 06:40:37;;;;;;;16.90;7.32;;;;;;;;;;6304459;28;20045;-87
2023/05/30 06:43:39;;;;;;;12.02;7.53;;;;;;;;;;6306738;28;20336;-86
2023/05/30 06:46:40;;;;;;;11.40;6.88;;;;;;;;;;6304408;28;20052;-85
2023/05/30 06:49:43;;;;;;;14.05;9.40;;;;;;;;;;6304718;28;20071;-85
2023/05/30 06:52:45;;;;;;;15.93;7.70;;;;;;;;;;6303061;28;20052;-87
2023/05/30 06:55:47;;;;;;;15.20;8.77;;;;;;;;;;6307131;28;20048;-85
2023/05/30 06:58:48;;;;;;;13.98;9.32;;;;;;;;;;6306599;28;20074;-86
2023/05/30 07:01:52;;;;;;;15.50;9.13;;;;;;;;;;6304682;28;20363;-86
2023/05/30 07:04:55;;;;;;;13.07;8.77;;;;;;;;;;6300954;28;20048;-92
2023/05/30 07:07:57;;;;;;;14.57;9.55;;;;;;;;;;6304964;28;20097;-92
2023/05/30 07:10:58;;;;;;;13.52;9.60;;;;;;;;;;6304170;28;20106;-91
2023/05/30 07:14:00;;;;;;;13.90;8.93;;;;;;;;;;6305049;28;20048;-89
2023/05/30 07:17:04;;;;;;;15.93;8.98;;;;;;;;;;6299976;28;20060;-89
2023/05/30 07:20:09;;;;;;;12.57;8.55;;;;;;;;;;6308231;28;20053;-90
2023/05/30 07:23:11;;;;;;;14.15;8.90;;;;;;;;;;6301900;28;20098;-88
2023/05/30 07:26:13;;;;;;;12.93;9.73;;;;;;;;;;6303230;28;20305;-88
2023/05/30 07:29:15;;;;;;;12.23;9.27;;;;;;;;;;6305750;28;20192;-86
2023/05/30 07:32:17;;;;;;;13.98;9.35;;;;;;;;;;6304686;28;20056;-88
2023/05/30 07:35:20;;;;;;;16.27;9.40;;;;;;;;;;6303310;28;20398;-88
2023/05/30 07:38:21;;;;;;;14.15;8.88;;;;;;;;;;6305277;28;20060;-87
2023/05/30 07:41:23;;;;;;;13.45;9.38;;;;;;;;;;6303555;28;20094;-86
2023/05/30 07:44:24;;;;;;;13.60;8.93;;;;;;;;;;6302132;28;20064;-89
2023/05/30 07:47:26;;;;;;;15.07;9.63;;;;;;;;;;6300513;28;20121;-89
2023/05/30 07:50:29;;;;;;;12.93;8.90;;;;;;;;;;6305010;28;20044;-87
2023/05/30 07:53:31;;;;;;;14.18;9.48;;;;;;;;;;6303444;28;20068;-88
2023/05/30 07:56:33;;;;;;;13.43;9.20;;;;;;;;;;6302444;28;20048;-87
2023/05/30 07:59:34;;;;;;;13.02;9.18;;;;;;;;;;6304785;28;20323;-89
2023/05/30 08:02:36;;;;;;;13.65;8.95;;;;;;;;;;6301496;28;20049;-88
2023/05/30 08:05:40;;;;;;;11.93;8.35;;;;;;;;;;6304232;28;20259;-89
2023/05/30 08:08:42;;;;;;;12.73;8.65;;;;;;;;;;6299803;28;20080;-88
2023/05/30 08:11:43;;;;;;;14.88;9.55;;;;;;;;;;6303708;28;20064;-88
2023/05/30 08:14:45;;;;;;;13.32;9.50;;;;;;;;;;6302697;28;20044;-88
2023/05/30 08:17:47;;;;;;;14.52;9.23;;;;;;;;;;6303377;28;20056;-88
2023/05/30 08:20:51;;;;;;;12.48;9.95;;;;;;;;;;6298939;28;20055;-89
2023/05/30 08:23:52;;;;;;;12.65;9.27;;;;;;;;;;6306062;28;20112;-88
2023/05/30 08:26:54;;;;;;;13.90;10.35;;;;;;;;;;6303324;28;20067;-87
2023/05/30 08:29:56;;;;;;;16.13;9.70;;;;;;;;;;6305033;28;20060;-88
2023/05/30 08:32:58;;;;;;;15.23;10.37;;;;;;;;;;6300907;28;20080;-87
2023/05/30 08:36:01;;;;;;;12.13;8.77;;;;;;;;;;6305622;28;20383;-90
2023/05/30 08:39:03;;;;;;;15.38;10.23;;;;;;;;;;6303207;28;20056;-89
2023/05/30 08:42:06;;;;;;;18.02;8.48;;;;;;;;;;6301688;28;20103;-90
2023/05/30 08:45:09;;;;;;;14.98;9.80;;;;;;;;;;6300483;28;20051;-88
2023/05/30 08:48:13;;;;;;;14.75;9.88;;;;;;;;;;6302906;28;20128;-86
2023/05/30 08:51:18;;;;;;;14.10;8.85;;;;;;;;;;6304316;28;20060;-88
2023/05/30 08:54:23;;;;;;;14.65;9.07;;;;;;;;;;6300370;28;20052;-88
2023/05/30 08:57:29;;;;;;;11.90;8.23;;;;;;;;;;6303695;28;20107;-89
2023/05/30 09:00:32;;;;;;;15.38;10.13;;;;;;;;;;6304485;28;20293;-89
2023/05/30 09:03:35;;;;;;;14.27;10.05;;;;;;;;;;6301470;28;20049;-89
2023/05/30 09:06:39;;;;;;;11.88;9.00;;;;;;;;;;6302515;28;20386;-88
2023/05/30 09:09:40;;;;;;;;;;;;;;;;;;6302810;28;20053;-89
2023/05/30 09:12:43;;;;;;;12.80;9.30;;;;;;;;;;6303155;28;19946;-88
2023/05/30 09:15:45;;;;;;;13.50;9.35;;;;;;;;;;6300101;28;20221;-88
2023/05/30 09:18:47;;;;;;;13.02;8.23;;;;;;;;;;6301325;28;20059;-89
2023/05/30 09:21:51;;;;;;;13.38;8.85;;;;;;;;;;6304078;28;20112;-88
2023/05/30 09:24:59;;;;;;;16.50;9.45;;;;;;;;;;6307934;28;20056;-88
2023/05/30 09:28:03;;;;;;;13.18;9.15;;;;;;;;;;6306954;28;20102;-89
2023/05/30 09:31:05;;;;;;;14.68;9.40;;;;;;;;;;6306978;28;20060;-88
2023/05/30 09:34:06;;;;;;;16.48;9.32;;;;;;;;;;6309237;28;20491;-88
2023/05/30 09:37:09;;;;;;;12.63;7.95;;;;;;;;;;6304935;28;20052;-87
2023/05/30 09:40:15;;;;;;;12.48;8.25;;;;;;;;;;6307759;28;20052;-89
2023/05/30 09:43:30;;;;;;;12.77;9.38;;;;;;;;;;6307367;28;20119;-89
2023/05/30 09:46:34;;;;;;;11.48;8.75;;;;;;;;;;6303900;28;20051;-88
2023/05/30 09:49:37;;;;;;;13.15;9.43;;;;;;;;;;6308780;28;20052;-89
2023/05/30 09:52:41;;;;;;;10.98;7.22;;;;;;;;;;6303790;28;22539;-87
2023/05/30 09:55:43;;;;;;;11.00;7.72;;;;;;;;;;6309564;28;20109;-88
2023/05/30 09:58:45;;;;;;;11.47;8.13;;;;;;;;;;6304195;28;20325;-89
2023/05/30 10:01:47;;;;;;;12.05;8.32;;;;;;;;;;6307631;28;20056;-89
2023/05/30 10:04:52;;;;;;;14.98;9.13;;;;;;;;;;6305290;28;20124;-89
2023/05/30 10:07:56;;;;;;;13.60;9.95;;;;;;;;;;6304929;28;20045;-89
2023/05/30 10:10:57;;;;;;;16.90;10.40;;;;;;;;;;6302281;28;20052;-88
2023/05/30 10:14:00;;;;;;;12.85;10.48;;;;;;;;;;6305597;28;20049;-88
2023/05/30 10:17:05;;;;;;;13.85;9.88;;;;;;;;;;6304086;28;20052;-88
2023/05/30 10:20:09;;;;;;;14.00;11.48;;;;;;;;;;6304694;28;20075;-88
2023/05/30 10:23:13;;;;;;;13.77;10.10;;;;;;;;;;6305646;28;20232;-88
2023/05/30 10:26:16;;;;;;;17.08;10.05;;;;;;;;;;6305116;28;20280;-89
2023/05/30 10:29:20;;;;;;;14.45;10.73;;;;;;;;;;6304894;28;20396;-88
2023/05/30 10:32:25;;;;;;;15.10;10.85;;;;;;;;;;6301211;28;20317;-88
2023/05/30 10:35:29;;;;;;;11.77;10.10;;;;;;;;;;6304083;28;20056;-88
2023/05/30 10:38:35;;;;;;;15.50;10.77;;;;;;;;;;6303036;28;20060;-88
2023/05/30 10:41:40;;;;;;;13.65;10.57;;;;;;;;;;6303806;28;20244;-88
2023/05/30 10:44:54;;;;;;;16.08;9.52;;;;;;;;;;6310562;28;20135;-88
2023/05/30 10:48:03;;;;;;;13.50;9.50;;;;;;;;;;6306416;28;20075;-88
2023/05/30 10:51:05;;;;;;;11.60;8.38;;;;;;;;;;6305209;28;20052;-89
2023/05/30 10:54:08;;;;;;;12.70;9.25;;;;;;;;;;6306401;28;20045;-88
2023/05/30 10:57:24;;;;;;;11.07;8.02;;;;;;;;;;6305118;28;20097;-88
2023/05/30 11:00:28;;;;;;;8.07;7.25;;;;;;;;;;6306512;28;20255;-89
2023/05/30 11:03:36;;;;;;;9.02;6.15;;;;;;;;;;6305235;28;20071;-88
2023/05/30 11:06:39;;;;;;;7.30;5.82;;;;;;;;;;6300080;28;20271;-88
2023/05/30 11:09:44;;;;;;;10.30;6.82;;;;;;;;;;6302712;28;20229;-87
2023/05/30 11:12:47;;;;;;;12.10;6.40;;;;;;;;;;6305275;28;20185;-88
2023/05/30 11:15:50;;;;;;;12.55;5.95;;;;;;;;;;6303059;28;20076;-89
2023/05/30 11:18:53;;;;;;;9.25;6.90;;;;;;;;;;6302310;28;20143;-88
2023/05/30 11:22:05;;;;;;;9.45;6.60;;;;;;;;;;6302855;28;20443;-88
2023/05/30 11:25:25;;;;;;;9.02;6.25;;;;;;;;;;6302425;28;20108;-88
2023/05/30 11:28:34;;;;;;;9.85;6.93;;;;;;;;;;6303590;28;20056;-88
2023/05/30 11:31:37;;;;;;;11.52;6.93;;;;;;;;;;6304234;28;20087;-88
2023/05/30 11:34:39;;;;;;;9.75;7.30;;;;;;;;;;6302273;28;20056;-87
2023/05/30 11:37:43;;;;;;;11.23;7.05;;;;;;;;;;6309898;28;20079;-87
2023/05/30 11:40:50;;;;;;;9.10;6.07;;;;;;;;;;6301410;28;20052;-87
2023/05/30 11:43:52;;;;;;;11.20;6.70;;;;;;;;;;6299855;28;20056;-87
2023/05/30 11:47:01;;;;;;;8.70;6.47;;;;;;;;;;6303353;28;20044;-88
2023/05/30 11:50:02;;;;;;;9.13;6.18;;;;;;;;;;6300297;28;20313;-88
2023/05/30 11:53:10;;;;;;;7.30;5.93;;;;;;;;;;6301877;28;20063;-86
2023/05/30 11:56:14;;;;;;;11.18;5.93;;;;;;;;;;6302598;28;20466;-88
2023/05/30 11:59:18;;;;;;;7.75;5.60;;;;;;;;;;6304320;28;20048;-87
2023/05/30 12:02:19;;;;;;;11.73;6.35;;;;;;;;;;6303414;28;20109;-87
2023/05/30 12:05:21;;;;;;;8.68;6.40;;;;;;;;;;6299958;28;20056;-88
2023/05/30 12:08:24;;;;;;;11.63;6.72;;;;;;;;;;6302696;28;20052;-89
2023/05/30 12:11:27;;;;;;;9.23;6.18;;;;;;;;;;6302574;28;20236;-89
2023/05/30 12:14:30;;;;;;;7.88;5.88;;;;;;;;;;6299810;28;20056;-87
2023/05/30 12:17:32;;;;;;;10.25;6.63;;;;;;;;;;6297705;28;20079;-90
2023/05/30 12:20:42;;;;;;;8.65;6.90;;;;;;;;;;6303518;28;20325;-92
2023/05/30 12:23:44;;;;;;;9.00;6.18;;;;;;;;;;6297453;28;20056;-88
2023/05/30 12:26:50;;;;;;;8.70;6.22;;;;;;;;;;6305322;28;20052;-92
2023/05/30 12:29:51;;;;;;;6.90;5.68;;;;;;;;;;6300395;28;20055;-87
2023/05/30 12:32:54;;;;;;;9.93;6.00;;;;;;;;;;6305339;28;20131;-93
2023/05/30 12:35:57;;;;;;;7.75;5.78;;;;;;;;;;6302068;28;20115;-89
2023/05/30 12:38:59;;;;;;;10.02;6.50;;;;;;;;;;6300515;28;20279;-91
2023/05/30 12:42:07;;;;;;;9.20;6.10;;;;;;;;;;6302528;28;20111;-92
2023/05/30 12:45:10;;;;;;;7.18;6.32;;;;;;;;;;6302014;28;20051;-95
2023/05/30 12:48:12;;;;;;;9.50;5.10;;;;;;;;;;6301051;28;20079;-96
2023/05/30 12:51:14;;;;;;;7.18;5.85;;;;;;;;;;6302478;28;20348;-94
2023/05/30 12:54:16;;;;;;;7.60;5.97;;;;;;;;;;6301465;28;20052;-95
2023/05/30 12:57:20;;;;;;;;;;;;;;;;;;6304546;28;20063;-94
2023/05/30 13:00:22;;;;;;;9.65;5.93;;;;;;;;;;6304743;28;19930;-92
2023/05/30 13:03:24;;;;;;;8.73;5.78;;;;;;;;;;6306586;28;20287;-89
2023/05/30 13:06:25;;;;;;;;;;;;;;;;;;6306960;28;20056;-91
2023/05/30 13:09:27;;;;;;;10.80;7.60;;;;;;;;;;6285866;28;20204;-89
2023/05/30 13:12:30;;;;;;;11.98;6.78;;;;;;;;;;6302827;28;20236;-89
2023/05/30 13:15:32;;;;;;;11.02;6.55;;;;;;;;;;6304488;28;20068;-89
2023/05/30 13:18:33;;;;;;;9.27;6.57;;;;;;;;;;6306807;28;20053;-91
2023/05/30 13:21:36;;;;;;;9.07;7.20;;;;;;;;;;6307621;28;20379;-90
2023/05/30 13:24:38;;;;;;;9.20;7.28;;;;;;;;;;6304212;28;20048;-92
2023/05/30 13:27:43;;;;;;;9.98;6.63;;;;;;;;;;6304108;28;20064;-91
2023/05/30 13:30:45;;;;;;;12.32;6.50;;;;;;;;;;6306517;28;20053;-90
2023/05/30 13:33:46;;;;;;;;;;;;;;;;;;6307477;28;20372;-90
2023/05/30 13:36:48;;;;;;;9.53;6.67;;;;;;;;;;6302863;28;19970;-90
2023/05/30 13:39:50;;;;;;;12.27;7.85;;;;;;;;;;6305730;28;20466;-89
2023/05/30 13:42:53;;;;;;;8.77;6.70;;;;;;;;;;6302723;28;20057;-91
2023/05/30 13:45:55;;;;;;;8.10;7.30;;;;;;;;;;6297578;28;20798;-90
2023/05/30 13:48:57;;;;;;;11.15;7.35;;;;;;;;;;6304309;28;20056;-89
2023/05/30 13:51:59;;;;;;;9.38;6.68;;;;;;;;;;6309522;28;20146;-90
2023/05/30 13:55:00;;;;;;;8.57;6.60;;;;;;;;;;6304819;28;20209;-89
2023/05/30 13:58:03;;;;;;;10.38;7.10;;;;;;;;;;6306177;28;20102;-89
2023/05/30 14:01:06;;;;;;;9.75;7.38;;;;;;;;;;6305469;28;20344;-93
2023/05/30 14:04:08;;;;;;;10.85;7.60;;;;;;;;;;6305596;28;20103;-89
2023/05/30 14:07:10;;;;;;;11.75;7.32;;;;;;;;;;6307231;28;20055;-90
2023/05/30 14:10:12;;;;;;;10.40;6.20;;;;;;;;;;6309068;28;20084;-91
2023/05/30 14:13:15;;;;;;;13.00;6.70;;;;;;;;;;6306266;28;20105;-89
2023/05/30 14:16:17;;;;;;;11.20;7.38;;;;;;;;;;6301159;28;20056;-90
2023/05/30 14:19:19;;;;;;;7.75;6.50;;;;;;;;;;6305280;28;20060;-90
2023/05/30 14:22:21;;;;;;;12.50;7.13;;;;;;;;;;6310037;28;20044;-90
2023/05/30 14:25:24;;;;;;;11.25;7.65;;;;;;;;;;6306235;28;20108;-91
2023/05/30 14:28:27;;;;;;;;;;;;;;;;;;6301579;28;20777;-91
2023/05/30 14:31:29;;;;;;;8.77;7.22;;;;;;;;;;6306392;28;20947;-90
2023/05/30 14:34:31;;;;;;;10.07;7.10;;;;;;;;;;6304788;28;20059;-90
2023/05/30 14:37:32;;;;;;;10.35;6.75;;;;;;;;;;6303760;28;20052;-87
2023/05/30 14:40:34;;;;;;;11.43;6.90;;;;;;;;;;6302371;28;20060;-90
2023/05/30 14:43:38;;;;;;;9.37;6.30;;;;;;;;;;6304139;28;20056;-90
2023/05/30 14:46:41;;;;;;;9.07;6.25;;;;;;;;;;6302665;28;20060;-85
2023/05/30 14:49:42;;;;;;;9.52;6.90;;;;;;;;;;6307272;28;20095;-80
2023/05/30 14:52:44;;;;;;;7.43;6.50;;;;;;;;;;6300896;28;20098;-80
2023/05/30 14:55:45;;;;;;;9.73;5.95;;;;;;;;;;6304816;28;20064;-78
2023/05/30 14:58:48;;;;;;;9.30;6.07;;;;;;;;;;6307060;28;20097;-78
2023/05/30 15:01:50;;;;;;;12.77;7.05;;;;;;;;;;6302692;28;20079;-79
2023/05/30 15:04:52;;;;;;;11.05;6.32;;;;;;;;;;6298108;28;20056;-79
2023/05/30 15:07:54;;;;;;;10.75;7.25;;;;;;;;;;6305182;28;20344;-79
2023/05/30 15:10:56;;;;;;;9.90;6.90;;;;;;;;;;6302263;28;20056;-78
2023/05/30 15:13:59;;;;;;;10.10;7.25;;;;;;;;;;6300307;28;20044;-78
2023/05/30 15:17:00;;;;;;;10.35;7.22;;;;;;;;;;6301796;28;20078;-81
2023/05/30 15:20:02;;;;;;;9.43;7.17;;;;;;;;;;6300729;28;20060;-79
2023/05/30 15:23:05;;;;;;;12.82;7.90;;;;;;;;;;6302322;28;20059;-81
2023/05/30 15:26:08;;;;;;;12.75;7.60;;;;;;;;;;6300436;28;20320;-79
2023/05/30 15:29:11;;;;;;;10.30;6.93;;;;;;;;;;6300708;28;21037;-80
2023/05/30 15:32:12;;;;;;;;;;;;;;;;;;6297771;28;20396;-79
2023/05/30 15:35:14;;;;;;;12.02;8.00;;;;;;;;;;6294912;28;19962;-80
2023/05/30 15:38:15;;;;;;;9.52;7.28;;;;;;;;;;6301349;28;20213;-78
2023/05/30 15:41:17;;;;;;;12.15;7.57;;;;;;;;;;6302600;28;20040;-79
2023/05/30 15:44:20;;;;;;;9.68;7.28;;;;;;;;;;6302078;28;20056;-79
2023/05/30 15:47:22;;;;;;;14.35;8.32;;;;;;;;;;6301633;28;20052;-81
2023/05/30 15:50:23;;;;;;;12.00;7.40;;;;;;;;;;6297216;28;20154;-78
2023/05/30 15:53:25;;;;;;;12.40;7.90;;;;;;;;;;6297670;28;20060;-78
2023/05/30 15:56:27;;;;;;;12.68;6.90;;;;;;;;;;6300718;28;20094;-78
2023/05/30 15:59:30;;;;;;;11.50;7.05;;;;;;;;;;6297116;28;20060;-78
2023/05/30 16:02:32;;;;;;;10.93;7.65;;;;;;;;;;6294775;28;20059;-78
2023/05/30 16:05:33;;;;;;;12.27;8.05;;;;;;;;;;6299612;28;20141;-78
2023/05/30 16:08:35;;;;;;;10.52;7.97;;;;;;;;;;6297671;28;20280;-80
2023/05/30 16:11:37;;;;;;;13.27;7.82;;;;;;;;;;6300781;28;20060;-78
2023/05/30 16:14:40;;;;;;;12.15;7.45;;;;;;;;;;6297574;28;20337;-78
2023/05/30 16:17:41;;;;;;;12.27;7.78;;;;;;;;;;6300675;28;20053;-78
2023/05/30 16:20:43;;;;;;;12.77;7.43;;;;;;;;;;6300023;28;20063;-78
2023/05/30 16:23:45;;;;;;;12.70;8.10;;;;;;;;;;6297849;28;20060;-80
2023/05/30 16:26:47;;;;;;;14.40;8.52;;;;;;;;;;6298761;28;20079;-78
2023/05/30 16:29:50;;;;;;;13.13;8.95;;;;;;;;;;6295414;28;20048;-79
2023/05/30 16:32:52;;;;;;;14.15;7.20;;;;;;;;;;6296318;28;20206;-78
2023/05/30 16:36:04;;;;;;;11.30;7.93;;;;;;;;;;6296721;28;20158;-76
2023/05/30 16:39:08;;;;;;;12.03;6.80;;;;;;;;;;6298693;28;20056;-77
2023/05/30 16:42:11;;;;;;;11.90;6.75;;;;;;;;;;6298811;28;20063;-77
2023/05/30 16:45:14;;;;;;;13.52;7.60;;;;;;;;;;6296024;28;20344;-79
2023/05/30 16:48:16;;;;;;;10.63;7.38;;;;;;;;;;6306496;28;20352;-84
2023/05/30 16:51:18;;;;;;;8.82;6.00;;;;;;;;;;6297486;28;20343;-82
2023/05/30 16:54:20;;;;;;;13.60;6.82;;;;;;;;;;6299473;28;20052;-84
2023/05/30 16:57:22;;;;;;;9.57;6.35;;;;;;;;;;6297461;28;20086;-83
2023/05/30 17:00:25;;;;;;;13.85;6.82;;;;;;;;;;6307422;28;20092;-83
2023/05/30 17:03:27;;;;;;;9.98;6.65;;;;;;;;;;6298207;28;20048;-83
2023/05/30 17:06:28;;;;;;;10.57;6.78;;;;;;;;;;6303432;28;20053;-84
2023/05/30 17:09:30;;;;;;;8.32;6.55;;;;;;;;;;6299227;28;20060;-83
2023/05/30 17:12:32;;;;;;;10.32;8.07;;;;;;;;;;6301669;28;20060;-82
2023/05/30 17:15:35;;;;;;;13.18;8.43;;;;;;;;;;6300449;28;20056;-82
2023/05/30 17:18:36;;;;;;;11.82;8.23;;;;;;;;;;6299062;28;20420;-83
2023/05/30 17:21:38;;;;;;;14.82;8.32;;;;;;;;;;6298836;28;20533;-82
2023/05/30 17:24:40;;;;;;;12.30;8.25;;;;;;;;;;6296187;28;20342;-81
2023/05/30 17:27:41;;;;;;;17.65;9.48;;;;;;;;;;6299108;28;20161;-82
2023/05/30 17:30:44;;;;;;;15.63;8.88;;;;;;;;;;6302642;28;20055;-82
2023/05/30 17:33:46;;;;;;;;;;;;;;;;;;6301932;28;20355;-81
2023/05/30 17:36:47;;;;;;;16.52;10.38;;;;;;;;;;6299553;28;19931;-83
2023/05/30 17:39:50;;;;;;;14.50;9.45;;;;;;;;;;6298078;28;20252;-83
2023/05/30 17:42:52;;;;;;;18.65;8.98;;;;;;;;;;6301462;28;20045;-83
2023/05/30 17:45:55;;;;;;;12.88;9.27;;;;;;;;;;6305210;28;20374;-83
2023/05/30 17:48:56;;;;;;;15.95;9.07;;;;;;;;;;6304048;28;20056;-81
2023/05/30 17:51:58;;;;;;;13.43;8.38;;;;;;;;;;6302662;28;20060;-83
2023/05/30 17:55:00;;;;;;;15.23;9.23;;;;;;;;;;6302191;28;20321;-83
2023/05/30 17:58:02;;;;;;;10.50;8.30;;;;;;;;;;6304467;28;20061;-82
2023/05/30 18:01:05;;;;;;;11.93;8.47;;;;;;;;;;6305514;28;20061;-83
2023/05/30 18:04:07;;;;;;;15.88;9.60;;;;;;;;;;6306083;28;20106;-83
2023/05/30 18:07:08;;;;;;;14.25;8.45;;;;;;;;;;6303698;28;20331;-82